GLD1705 SBBV-TGPY
Flight info
| Callsign | GLD1705 |
|---|---|
| Flight time | 1h 35m |
| Altitude | 38000 |
| Route | DCT ILNER UM402 POS DCT IMORO DCT |
| Aircraft | C25C/L-SDFGIRY/S |
Departure
| Time | 2026-04-29 19:10 |
|---|---|
| Airport | Atlas Brasil Cantanhede International Airport (SBBV) |
Arrival
| Time | 2026-04-29 20:45 |
|---|---|
| Airport | Maurice Bishop International Airport (TGPY) |
| Time | Latitude | Longitude | Altitude | Speed | Heading |
|---|---|---|---|---|---|
| 2026-04-29 18:55 | 2.84435 | -60.68875 | 265 ft | 0 kts | 156° |
| 2026-04-29 19:06 | 2.84434 | -60.68880 | 265 ft | 2 kts | 315° |
| 2026-04-29 19:06 | 2.84480 | -60.68892 | 266 ft | 11 kts | 347° |
| 2026-04-29 19:06 | 2.84611 | -60.68974 | 266 ft | 9 kts | 286° |
| 2026-04-29 19:07 | 2.84611 | -60.69052 | 266 ft | 16 kts | 253° |
| 2026-04-29 19:07 | 2.84557 | -60.69124 | 265 ft | 23 kts | 214° |
| 2026-04-29 19:07 | 2.84437 | -60.69359 | 263 ft | 35 kts | 251° |
| 2026-04-29 19:07 | 2.84335 | -60.69556 | 262 ft | 33 kts | 202° |
| 2026-04-29 19:08 | 2.84234 | -60.69756 | 264 ft | 31 kts | 240° |
| 2026-04-29 19:08 | 2.84218 | -60.69811 | 264 ft | 0 kts | 43° |
| 2026-04-29 19:08 | 2.84228 | -60.69799 | 264 ft | 0 kts | 60° |
| 2026-04-29 19:09 | 2.84290 | -60.69678 | 263 ft | 55 kts | 62° |
| 2026-04-29 19:09 | 2.84591 | -60.69076 | 267 ft | 135 kts | 65° |
| 2026-04-29 19:09 | 2.85080 | -60.68046 | 435 ft | 191 kts | 68° |
| 2026-04-29 19:10 | 2.85638 | -60.66783 | 1344 ft | 200 kts | 65° |
| 2026-04-29 19:10 | 2.86325 | -60.65535 | 2272 ft | 216 kts | 59° |
| 2026-04-29 19:10 | 2.87111 | -60.64185 | 3262 ft | 236 kts | 62° |
| 2026-04-29 19:10 | 2.87953 | -60.62741 | 4029 ft | 248 kts | 51° |
| 2026-04-29 19:11 | 2.89372 | -60.61753 | 5021 ft | 254 kts | 26° |
| 2026-04-29 19:11 | 2.91123 | -60.61504 | 5968 ft | 261 kts | 356° |
| 2026-04-29 19:11 | 2.92943 | -60.61752 | 6839 ft | 266 kts | 354° |
| 2026-04-29 19:11 | 2.94781 | -60.62081 | 7697 ft | 270 kts | 351° |
| 2026-04-29 19:12 | 2.96644 | -60.62433 | 8524 ft | 275 kts | 352° |
| 2026-04-29 19:12 | 2.98546 | -60.62759 | 9372 ft | 279 kts | 353° |
| 2026-04-29 19:12 | 3.00477 | -60.63081 | 10170 ft | 283 kts | 353° |
| 2026-04-29 19:12 | 3.01769 | -60.63302 | 10681 ft | 286 kts | 352° |
| 2026-04-29 19:13 | 3.04422 | -60.63758 | 11697 ft | 291 kts | 352° |
| 2026-04-29 19:13 | 3.06413 | -60.64100 | 12415 ft | 296 kts | 352° |
| 2026-04-29 19:13 | 3.08457 | -60.64452 | 13120 ft | 300 kts | 352° |
| 2026-04-29 19:13 | 3.10526 | -60.64804 | 13801 ft | 304 kts | 352° |
| 2026-04-29 19:14 | 3.12622 | -60.65165 | 14420 ft | 307 kts | 353° |
| 2026-04-29 19:14 | 3.14742 | -60.65527 | 15034 ft | 311 kts | 352° |
| 2026-04-29 19:14 | 3.16883 | -60.65894 | 15669 ft | 314 kts | 353° |
| 2026-04-29 19:14 | 3.19046 | -60.66267 | 16258 ft | 318 kts | 353° |
| 2026-04-29 19:15 | 3.21244 | -60.66641 | 16860 ft | 321 kts | 353° |
| 2026-04-29 19:15 | 3.23466 | -60.67025 | 17443 ft | 325 kts | 353° |
| 2026-04-29 19:15 | 3.25681 | -60.67401 | 18020 ft | 329 kts | 353° |
| 2026-04-29 19:15 | 3.27952 | -60.67794 | 18518 ft | 332 kts | 353° |
| 2026-04-29 19:16 | 3.30242 | -60.68184 | 18987 ft | 335 kts | 353° |
| 2026-04-29 19:16 | 3.32552 | -60.68583 | 19485 ft | 338 kts | 353° |
| 2026-04-29 19:16 | 3.34885 | -60.68981 | 19969 ft | 341 kts | 353° |
| 2026-04-29 19:16 | 3.37231 | -60.69383 | 20454 ft | 344 kts | 353° |
| 2026-04-29 19:17 | 3.39597 | -60.69790 | 20941 ft | 347 kts | 353° |
| 2026-04-29 19:17 | 3.41984 | -60.70198 | 21415 ft | 349 kts | 353° |
| 2026-04-29 19:17 | 3.44391 | -60.70613 | 21879 ft | 352 kts | 353° |
| 2026-04-29 19:17 | 3.46794 | -60.71023 | 22340 ft | 355 kts | 353° |
| 2026-04-29 19:18 | 3.49242 | -60.71445 | 22799 ft | 358 kts | 354° |
| 2026-04-29 19:18 | 3.50876 | -60.71723 | 23097 ft | 360 kts | 354° |
| 2026-04-29 19:18 | 3.54202 | -60.72295 | 23648 ft | 364 kts | 353° |
| 2026-04-29 19:18 | 3.56704 | -60.72725 | 24057 ft | 365 kts | 353° |
| 2026-04-29 19:19 | 3.59212 | -60.73154 | 24473 ft | 366 kts | 353° |
| 2026-04-29 19:19 | 3.61725 | -60.73587 | 24888 ft | 367 kts | 353° |
| 2026-04-29 19:19 | 3.64252 | -60.74020 | 25296 ft | 369 kts | 352° |
| 2026-04-29 19:19 | 3.66786 | -60.74454 | 25705 ft | 370 kts | 352° |
| 2026-04-29 19:20 | 3.69325 | -60.74891 | 26104 ft | 371 kts | 352° |
| 2026-04-29 19:20 | 3.71877 | -60.75328 | 26503 ft | 372 kts | 352° |
| 2026-04-29 19:20 | 3.74406 | -60.75762 | 26885 ft | 374 kts | 352° |
| 2026-04-29 19:20 | 3.76976 | -60.76205 | 27271 ft | 375 kts | 352° |
| 2026-04-29 19:21 | 3.79558 | -60.76646 | 27657 ft | 376 kts | 352° |
| 2026-04-29 19:21 | 3.82147 | -60.77091 | 28000 ft | 379 kts | 352° |
| 2026-04-29 19:21 | 3.84739 | -60.77536 | 28467 ft | 377 kts | 351° |
| 2026-04-29 19:21 | 3.87318 | -60.77965 | 28974 ft | 374 kts | 354° |
| 2026-04-29 19:22 | 3.89905 | -60.78183 | 29487 ft | 371 kts | 356° |
| 2026-04-29 19:22 | 3.92472 | -60.78420 | 29953 ft | 370 kts | 355° |
| 2026-04-29 19:22 | 3.95022 | -60.78666 | 30379 ft | 367 kts | 355° |
| 2026-04-29 19:22 | 3.97563 | -60.78896 | 30786 ft | 366 kts | 355° |
| 2026-04-29 19:23 | 4.00095 | -60.79118 | 31189 ft | 364 kts | 354° |
| 2026-04-29 19:23 | 4.02618 | -60.79347 | 31600 ft | 363 kts | 354° |
| 2026-04-29 19:23 | 4.05132 | -60.79576 | 32015 ft | 361 kts | 354° |
| 2026-04-29 19:23 | 4.07627 | -60.79802 | 32456 ft | 359 kts | 354° |
| 2026-04-29 19:24 | 4.10106 | -60.80027 | 32889 ft | 357 kts | 354° |
| 2026-04-29 19:24 | 4.12546 | -60.80247 | 33318 ft | 355 kts | 353° |
| 2026-04-29 19:24 | 4.15000 | -60.80470 | 33759 ft | 353 kts | 353° |
| 2026-04-29 19:24 | 4.17438 | -60.80691 | 34124 ft | 351 kts | 353° |
| 2026-04-29 19:25 | 4.19876 | -60.80912 | 34445 ft | 351 kts | 353° |
| 2026-04-29 19:25 | 4.22308 | -60.81133 | 34770 ft | 351 kts | 353° |
| 2026-04-29 19:25 | 4.24738 | -60.81352 | 35098 ft | 351 kts | 353° |
| 2026-04-29 19:25 | 4.27167 | -60.81572 | 35435 ft | 350 kts | 353° |
| 2026-04-29 19:26 | 4.29596 | -60.81793 | 35787 ft | 350 kts | 353° |
| 2026-04-29 19:26 | 4.32021 | -60.82012 | 36134 ft | 349 kts | 353° |
| 2026-04-29 19:26 | 4.34444 | -60.82232 | 36478 ft | 349 kts | 353° |
| 2026-04-29 19:26 | 4.36834 | -60.82449 | 36815 ft | 349 kts | 353° |
| 2026-04-29 19:27 | 4.39252 | -60.82667 | 37159 ft | 348 kts | 353° |
| 2026-04-29 19:27 | 4.41665 | -60.82887 | 37497 ft | 348 kts | 353° |
| 2026-04-29 19:27 | 4.44081 | -60.83106 | 37755 ft | 350 kts | 353° |
| 2026-04-29 19:28 | 4.49030 | -60.83556 | 37857 ft | 365 kts | 353° |
| 2026-04-29 19:28 | 4.54194 | -60.84024 | 37872 ft | 380 kts | 353° |
| 2026-04-29 19:29 | 4.59547 | -60.84510 | 37877 ft | 392 kts | 353° |
| 2026-04-29 19:29 | 4.64118 | -60.84924 | 37883 ft | 401 kts | 353° |
| 2026-04-29 19:30 | 4.70699 | -60.85520 | 37884 ft | 407 kts | 353° |
| 2026-04-29 19:30 | 4.75348 | -60.85958 | 37886 ft | 400 kts | 353° |
| 2026-04-29 19:31 | 4.80844 | -60.86479 | 37886 ft | 393 kts | 353° |
| 2026-04-29 19:31 | 4.86223 | -60.86984 | 37877 ft | 388 kts | 353° |
| 2026-04-29 19:32 | 4.91566 | -60.87490 | 37878 ft | 383 kts | 353° |
| 2026-04-29 19:32 | 4.96849 | -60.87987 | 37880 ft | 379 kts | 353° |
| 2026-04-29 19:33 | 5.02085 | -60.88481 | 37875 ft | 376 kts | 353° |
| 2026-04-29 19:33 | 5.07250 | -60.88969 | 37876 ft | 373 kts | 353° |
| 2026-04-29 19:34 | 5.12419 | -60.89457 | 37878 ft | 371 kts | 353° |
| 2026-04-29 19:34 | 5.17550 | -60.89940 | 37879 ft | 370 kts | 353° |
| 2026-04-29 19:35 | 5.22712 | -60.90428 | 37884 ft | 378 kts | 353° |
| 2026-04-29 19:35 | 5.28008 | -60.90928 | 37897 ft | 385 kts | 353° |
| 2026-04-29 19:36 | 5.33370 | -60.91434 | 37893 ft | 390 kts | 353° |
| 2026-04-29 19:36 | 5.38816 | -60.91948 | 37891 ft | 395 kts | 353° |
| 2026-04-29 19:37 | 5.44324 | -60.92459 | 37888 ft | 398 kts | 353° |
| 2026-04-29 19:37 | 5.49828 | -60.92947 | 37880 ft | 401 kts | 353° |
| 2026-04-29 19:38 | 5.55404 | -60.93453 | 37884 ft | 403 kts | 353° |
| 2026-04-29 19:38 | 5.61010 | -60.93957 | 37876 ft | 405 kts | 353° |
| 2026-04-29 19:39 | 5.66641 | -60.94466 | 37881 ft | 407 kts | 353° |
| 2026-04-29 19:39 | 5.72290 | -60.94976 | 37876 ft | 408 kts | 353° |
| 2026-04-29 19:40 | 5.77963 | -60.95488 | 37878 ft | 409 kts | 353° |
| 2026-04-29 19:40 | 5.83645 | -60.96000 | 37882 ft | 410 kts | 353° |
| 2026-04-29 19:41 | 5.89335 | -60.96515 | 37875 ft | 410 kts | 353° |
| 2026-04-29 19:41 | 5.95028 | -60.97027 | 37877 ft | 411 kts | 352° |
| 2026-04-29 19:42 | 6.00697 | -60.97541 | 37873 ft | 412 kts | 353° |
| 2026-04-29 19:42 | 6.06425 | -60.98058 | 37873 ft | 412 kts | 352° |
| 2026-04-29 19:43 | 6.12147 | -60.98575 | 37870 ft | 413 kts | 352° |
| 2026-04-29 19:43 | 6.17834 | -60.99090 | 37871 ft | 413 kts | 352° |
| 2026-04-29 19:44 | 6.23566 | -60.99606 | 37861 ft | 413 kts | 352° |
| 2026-04-29 19:44 | 6.29291 | -61.00124 | 37857 ft | 413 kts | 352° |
| 2026-04-29 19:45 | 6.35026 | -61.00643 | 37857 ft | 414 kts | 352° |
| 2026-04-29 19:45 | 6.40772 | -61.01163 | 37854 ft | 414 kts | 352° |
| 2026-04-29 19:46 | 6.46505 | -61.01681 | 37850 ft | 414 kts | 352° |
| 2026-04-29 19:46 | 6.52236 | -61.02200 | 37844 ft | 413 kts | 352° |
| 2026-04-29 19:47 | 6.57927 | -61.02715 | 37842 ft | 413 kts | 352° |
| 2026-04-29 19:47 | 6.63663 | -61.03234 | 37842 ft | 414 kts | 352° |
| 2026-04-29 19:48 | 6.69404 | -61.03753 | 37848 ft | 413 kts | 352° |
| 2026-04-29 19:48 | 6.75133 | -61.04286 | 37838 ft | 413 kts | 351° |
| 2026-04-29 19:49 | 6.80860 | -61.04833 | 37839 ft | 413 kts | 351° |
| 2026-04-29 19:49 | 6.86546 | -61.05369 | 37836 ft | 413 kts | 351° |
| 2026-04-29 19:50 | 6.92265 | -61.05910 | 37832 ft | 413 kts | 351° |
| 2026-04-29 19:50 | 6.97989 | -61.06450 | 37831 ft | 413 kts | 351° |
| 2026-04-29 19:51 | 7.03717 | -61.06994 | 37833 ft | 413 kts | 351° |
| 2026-04-29 19:51 | 7.09448 | -61.07535 | 37835 ft | 413 kts | 351° |
| 2026-04-29 19:52 | 7.15175 | -61.08077 | 37834 ft | 413 kts | 352° |
| 2026-04-29 19:52 | 7.20876 | -61.08617 | 37837 ft | 414 kts | 352° |
| 2026-04-29 19:53 | 7.26609 | -61.09161 | 37841 ft | 414 kts | 352° |
| 2026-04-29 19:53 | 7.32343 | -61.09703 | 37840 ft | 414 kts | 352° |
| 2026-04-29 19:54 | 7.40964 | -61.10521 | 37840 ft | 415 kts | 352° |
| 2026-04-29 19:54 | 7.46717 | -61.11065 | 37843 ft | 415 kts | 352° |
| 2026-04-29 19:55 | 7.52429 | -61.11606 | 37845 ft | 415 kts | 352° |
| 2026-04-29 19:55 | 7.58190 | -61.12154 | 37843 ft | 415 kts | 352° |
| 2026-04-29 19:56 | 7.63948 | -61.12700 | 37839 ft | 415 kts | 352° |
| 2026-04-29 19:56 | 7.69696 | -61.13245 | 37844 ft | 415 kts | 352° |
| 2026-04-29 19:57 | 7.74480 | -61.13700 | 37843 ft | 415 kts | 352° |
| 2026-04-29 19:57 | 7.81197 | -61.14336 | 37842 ft | 415 kts | 352° |
| 2026-04-29 19:58 | 7.86903 | -61.14881 | 37842 ft | 414 kts | 352° |
| 2026-04-29 19:58 | 7.92656 | -61.15425 | 37843 ft | 414 kts | 352° |
| 2026-04-29 19:59 | 7.98404 | -61.15972 | 37844 ft | 414 kts | 352° |
| 2026-04-29 19:59 | 8.04145 | -61.16518 | 37844 ft | 414 kts | 352° |
| 2026-04-29 20:00 | 8.09877 | -61.17063 | 37845 ft | 414 kts | 352° |
| 2026-04-29 20:00 | 8.15615 | -61.17609 | 37842 ft | 414 kts | 352° |
| 2026-04-29 20:01 | 8.21315 | -61.18151 | 37841 ft | 413 kts | 352° |
| 2026-04-29 20:01 | 8.27033 | -61.18694 | 37841 ft | 413 kts | 352° |
| 2026-04-29 20:02 | 8.32767 | -61.19240 | 37847 ft | 413 kts | 352° |
| 2026-04-29 20:02 | 8.37524 | -61.19693 | 37846 ft | 413 kts | 352° |
| 2026-04-29 20:03 | 8.44191 | -61.20329 | 37848 ft | 413 kts | 352° |
| 2026-04-29 20:03 | 8.49916 | -61.20865 | 37846 ft | 413 kts | 352° |
| 2026-04-29 20:04 | 8.55640 | -61.21382 | 37851 ft | 413 kts | 352° |
| 2026-04-29 20:04 | 8.61369 | -61.21911 | 37859 ft | 413 kts | 352° |
| 2026-04-29 20:05 | 8.67099 | -61.22433 | 37852 ft | 413 kts | 352° |
| 2026-04-29 20:05 | 8.72790 | -61.22956 | 37860 ft | 413 kts | 352° |
| 2026-04-29 20:06 | 8.78515 | -61.23481 | 37858 ft | 413 kts | 352° |
| 2026-04-29 20:06 | 8.84237 | -61.24005 | 37858 ft | 413 kts | 352° |
| 2026-04-29 20:07 | 8.89962 | -61.24530 | 37862 ft | 413 kts | 352° |
| 2026-04-29 20:07 | 8.95688 | -61.25055 | 37864 ft | 413 kts | 352° |
| 2026-04-29 20:08 | 9.00458 | -61.25492 | 37867 ft | 413 kts | 352° |
| 2026-04-29 20:08 | 9.07145 | -61.26107 | 37866 ft | 411 kts | 352° |
| 2026-04-29 20:09 | 9.12781 | -61.26625 | 37866 ft | 407 kts | 352° |
| 2026-04-29 20:09 | 9.18405 | -61.27140 | 37860 ft | 404 kts | 351° |
| 2026-04-29 20:10 | 9.23994 | -61.27655 | 37858 ft | 402 kts | 351° |
| 2026-04-29 20:10 | 9.29554 | -61.28165 | 37851 ft | 400 kts | 351° |
| 2026-04-29 20:11 | 9.35089 | -61.28674 | 37853 ft | 398 kts | 351° |
| 2026-04-29 20:11 | 9.40594 | -61.29181 | 37859 ft | 397 kts | 351° |
| 2026-04-29 20:12 | 9.46082 | -61.29685 | 37858 ft | 395 kts | 351° |
| 2026-04-29 20:12 | 9.51526 | -61.30187 | 37857 ft | 394 kts | 351° |
| 2026-04-29 20:13 | 9.56073 | -61.30606 | 37859 ft | 394 kts | 351° |
| 2026-04-29 20:13 | 9.62450 | -61.31193 | 37870 ft | 393 kts | 351° |
| 2026-04-29 20:14 | 9.67902 | -61.31695 | 37864 ft | 392 kts | 351° |
| 2026-04-29 20:14 | 9.73321 | -61.32197 | 37594 ft | 398 kts | 351° |
| 2026-04-29 20:15 | 9.76130 | -61.32457 | 37072 ft | 410 kts | 351° |
| 2026-04-29 20:15 | 9.79009 | -61.32722 | 36534 ft | 422 kts | 352° |
| 2026-04-29 20:15 | 9.81973 | -61.32995 | 35964 ft | 433 kts | 352° |
| 2026-04-29 20:15 | 9.85015 | -61.33273 | 35387 ft | 443 kts | 353° |
| 2026-04-29 20:16 | 9.88116 | -61.33561 | 34797 ft | 452 kts | 353° |
| 2026-04-29 20:16 | 9.91281 | -61.33853 | 34197 ft | 461 kts | 353° |
| 2026-04-29 20:16 | 9.93404 | -61.34061 | 33777 ft | 462 kts | 353° |
| 2026-04-29 20:16 | 9.97516 | -61.34466 | 32965 ft | 435 kts | 353° |
| 2026-04-29 20:17 | 10.00474 | -61.34753 | 32401 ft | 419 kts | 353° |
| 2026-04-29 20:17 | 10.03336 | -61.35028 | 31851 ft | 406 kts | 353° |
| 2026-04-29 20:17 | 10.05189 | -61.35208 | 31500 ft | 399 kts | 353° |
| 2026-04-29 20:17 | 10.07920 | -61.35474 | 30985 ft | 389 kts | 353° |
| 2026-04-29 20:18 | 10.10587 | -61.35734 | 30477 ft | 382 kts | 353° |
| 2026-04-29 20:18 | 10.13208 | -61.35988 | 29979 ft | 375 kts | 354° |
| 2026-04-29 20:18 | 10.15789 | -61.36238 | 29453 ft | 369 kts | 354° |
| 2026-04-29 20:18 | 10.18321 | -61.36483 | 28966 ft | 362 kts | 354° |
| 2026-04-29 20:19 | 10.20812 | -61.36727 | 28494 ft | 357 kts | 354° |
| 2026-04-29 20:19 | 10.23268 | -61.36965 | 28030 ft | 352 kts | 355° |
| 2026-04-29 20:19 | 10.25693 | -61.37201 | 27570 ft | 348 kts | 355° |
| 2026-04-29 20:19 | 10.28096 | -61.37434 | 27114 ft | 345 kts | 355° |
| 2026-04-29 20:20 | 10.30485 | -61.37666 | 26659 ft | 343 kts | 355° |
| 2026-04-29 20:20 | 10.32851 | -61.37895 | 26213 ft | 341 kts | 356° |
| 2026-04-29 20:20 | 10.35208 | -61.38125 | 25765 ft | 339 kts | 356° |
| 2026-04-29 20:20 | 10.37551 | -61.38353 | 25320 ft | 338 kts | 356° |
| 2026-04-29 20:21 | 10.39890 | -61.38579 | 24874 ft | 337 kts | 356° |
| 2026-04-29 20:21 | 10.42221 | -61.38806 | 24433 ft | 336 kts | 356° |
| 2026-04-29 20:21 | 10.44521 | -61.39031 | 23997 ft | 336 kts | 356° |
| 2026-04-29 20:21 | 10.46844 | -61.39290 | 23550 ft | 336 kts | 351° |
| 2026-04-29 20:22 | 10.49118 | -61.39869 | 23065 ft | 336 kts | 347° |
| 2026-04-29 20:22 | 10.51375 | -61.40449 | 22615 ft | 333 kts | 348° |
| 2026-04-29 20:22 | 10.53620 | -61.41012 | 22176 ft | 330 kts | 348° |
| 2026-04-29 20:22 | 10.55843 | -61.41576 | 21741 ft | 328 kts | 347° |
| 2026-04-29 20:23 | 10.58052 | -61.42140 | 21309 ft | 326 kts | 348° |
| 2026-04-29 20:23 | 10.60246 | -61.42701 | 20880 ft | 324 kts | 348° |
| 2026-04-29 20:23 | 10.62428 | -61.43254 | 20456 ft | 322 kts | 348° |
| 2026-04-29 20:23 | 10.64598 | -61.43806 | 20030 ft | 320 kts | 348° |
| 2026-04-29 20:24 | 10.66765 | -61.44360 | 19601 ft | 322 kts | 347° |
| 2026-04-29 20:24 | 10.68951 | -61.44915 | 19179 ft | 325 kts | 348° |
| 2026-04-29 20:24 | 10.71149 | -61.45475 | 18745 ft | 326 kts | 348° |
| 2026-04-29 20:24 | 10.73325 | -61.46030 | 18325 ft | 328 kts | 348° |
| 2026-04-29 20:25 | 10.75544 | -61.46598 | 17858 ft | 328 kts | 348° |
| 2026-04-29 20:25 | 10.77763 | -61.47163 | 17411 ft | 327 kts | 348° |
| 2026-04-29 20:25 | 10.79969 | -61.47722 | 16978 ft | 325 kts | 348° |
| 2026-04-29 20:25 | 10.82163 | -61.48284 | 16548 ft | 324 kts | 348° |
| 2026-04-29 20:26 | 10.84326 | -61.48834 | 16126 ft | 323 kts | 348° |
| 2026-04-29 20:26 | 10.86531 | -61.49397 | 15697 ft | 337 kts | 349° |
| 2026-04-29 20:26 | 10.88917 | -61.49998 | 15234 ft | 368 kts | 348° |
| 2026-04-29 20:26 | 10.91461 | -61.50650 | 14737 ft | 382 kts | 348° |
| 2026-04-29 20:27 | 10.94046 | -61.51316 | 14230 ft | 384 kts | 348° |
| 2026-04-29 20:27 | 10.95761 | -61.51756 | 13892 ft | 384 kts | 349° |
| 2026-04-29 20:27 | 10.99223 | -61.52637 | 13175 ft | 381 kts | 349° |
| 2026-04-29 20:27 | 11.01774 | -61.53286 | 12673 ft | 374 kts | 349° |
| 2026-04-29 20:28 | 11.04273 | -61.53928 | 12183 ft | 368 kts | 348° |
| 2026-04-29 20:28 | 11.06716 | -61.54549 | 11705 ft | 363 kts | 348° |
| 2026-04-29 20:28 | 11.09160 | -61.55175 | 11226 ft | 360 kts | 348° |
| 2026-04-29 20:28 | 11.11583 | -61.55792 | 10757 ft | 357 kts | 348° |
| 2026-04-29 20:29 | 11.13986 | -61.56407 | 10288 ft | 355 kts | 348° |
| 2026-04-29 20:29 | 11.16382 | -61.57020 | 9819 ft | 354 kts | 348° |
| 2026-04-29 20:29 | 11.18761 | -61.57627 | 9321 ft | 352 kts | 348° |
| 2026-04-29 20:29 | 11.21131 | -61.58233 | 8862 ft | 349 kts | 348° |
| 2026-04-29 20:30 | 11.23485 | -61.58836 | 8400 ft | 347 kts | 348° |
| 2026-04-29 20:30 | 11.25823 | -61.59433 | 7945 ft | 346 kts | 347° |
| 2026-04-29 20:30 | 11.28142 | -61.60027 | 7492 ft | 335 kts | 347° |
| 2026-04-29 20:30 | 11.30312 | -61.60584 | 7069 ft | 310 kts | 347° |
| 2026-04-29 20:31 | 11.32315 | -61.61096 | 6675 ft | 291 kts | 347° |
| 2026-04-29 20:31 | 11.34224 | -61.61584 | 6297 ft | 275 kts | 347° |
| 2026-04-29 20:31 | 11.36041 | -61.62048 | 5928 ft | 263 kts | 347° |
| 2026-04-29 20:31 | 11.37785 | -61.62495 | 5581 ft | 253 kts | 348° |
| 2026-04-29 20:32 | 11.39468 | -61.62926 | 5260 ft | 248 kts | 348° |
| 2026-04-29 20:32 | 11.41131 | -61.63352 | 4938 ft | 245 kts | 348° |
| 2026-04-29 20:32 | 11.42782 | -61.63773 | 4612 ft | 243 kts | 348° |
| 2026-04-29 20:32 | 11.44420 | -61.64194 | 4286 ft | 242 kts | 348° |
| 2026-04-29 20:33 | 11.46046 | -61.64610 | 3972 ft | 240 kts | 348° |
| 2026-04-29 20:33 | 11.47677 | -61.65025 | 3655 ft | 253 kts | 348° |
| 2026-04-29 20:33 | 11.49444 | -61.65476 | 3314 ft | 270 kts | 348° |
| 2026-04-29 20:33 | 11.51309 | -61.65954 | 2944 ft | 281 kts | 349° |
| 2026-04-29 20:34 | 11.53122 | -61.66646 | 2903 ft | 277 kts | 326° |
| 2026-04-29 20:34 | 11.54459 | -61.68030 | 2907 ft | 271 kts | 312° |
| 2026-04-29 20:34 | 11.55744 | -61.69410 | 2910 ft | 265 kts | 318° |
| 2026-04-29 20:34 | 11.57150 | -61.70601 | 2913 ft | 261 kts | 325° |
| 2026-04-29 20:35 | 11.58605 | -61.71690 | 2909 ft | 259 kts | 325° |
| 2026-04-29 20:35 | 11.60032 | -61.72804 | 2910 ft | 258 kts | 324° |
| 2026-04-29 20:35 | 11.61440 | -61.73934 | 2904 ft | 256 kts | 323° |
| 2026-04-29 20:35 | 11.62836 | -61.75055 | 2906 ft | 254 kts | 324° |
| 2026-04-29 20:36 | 11.64227 | -61.76163 | 2905 ft | 253 kts | 323° |
| 2026-04-29 20:36 | 11.65598 | -61.77252 | 2910 ft | 252 kts | 323° |
| 2026-04-29 20:36 | 11.66989 | -61.78364 | 2908 ft | 257 kts | 324° |
| 2026-04-29 20:36 | 11.68410 | -61.79494 | 2909 ft | 261 kts | 323° |
| 2026-04-29 20:37 | 11.69846 | -61.80641 | 2911 ft | 263 kts | 324° |
| 2026-04-29 20:37 | 11.71295 | -61.81797 | 2912 ft | 265 kts | 323° |
| 2026-04-29 20:37 | 11.72752 | -61.82958 | 2916 ft | 265 kts | 324° |
| 2026-04-29 20:37 | 11.74206 | -61.84122 | 2918 ft | 267 kts | 323° |
| 2026-04-29 20:38 | 11.75722 | -61.85325 | 2927 ft | 286 kts | 323° |
| 2026-04-29 20:38 | 11.77308 | -61.86598 | 2924 ft | 285 kts | 323° |
| 2026-04-29 20:38 | 11.78862 | -61.87834 | 2923 ft | 282 kts | 323° |
| 2026-04-29 20:38 | 11.80396 | -61.89063 | 2924 ft | 279 kts | 324° |
| 2026-04-29 20:39 | 11.81922 | -61.90280 | 2917 ft | 278 kts | 323° |
| 2026-04-29 20:39 | 11.83420 | -61.91475 | 2916 ft | 276 kts | 324° |
| 2026-04-29 20:39 | 11.84931 | -61.92683 | 2914 ft | 275 kts | 323° |
| 2026-04-29 20:39 | 11.86434 | -61.93884 | 2921 ft | 274 kts | 323° |
| 2026-04-29 20:40 | 11.87936 | -61.95084 | 2920 ft | 273 kts | 323° |
| 2026-04-29 20:40 | 11.89440 | -61.96278 | 2915 ft | 273 kts | 326° |
| 2026-04-29 20:40 | 11.91142 | -61.97033 | 2902 ft | 266 kts | 356° |
| 2026-04-29 20:40 | 11.92984 | -61.97104 | 2908 ft | 264 kts | 1° |
| 2026-04-29 20:41 | 11.94819 | -61.97111 | 2906 ft | 263 kts | 4° |
| 2026-04-29 20:41 | 11.96652 | -61.97058 | 2843 ft | 264 kts | 5° |
| 2026-04-29 20:41 | 11.98407 | -61.96586 | 2661 ft | 263 kts | 34° |
| 2026-04-29 20:41 | 11.99759 | -61.95380 | 2454 ft | 263 kts | 56° |
| 2026-04-29 20:42 | 12.00435 | -61.93652 | 2227 ft | 263 kts | 80° |
| 2026-04-29 20:42 | 12.00488 | -61.91811 | 2003 ft | 257 kts | 91° |
| 2026-04-29 20:42 | 12.00482 | -61.90009 | 1882 ft | 250 kts | 91° |
| 2026-04-29 20:42 | 12.00452 | -61.88232 | 1584 ft | 248 kts | 91° |
| 2026-04-29 20:43 | 12.00446 | -61.86536 | 1266 ft | 230 kts | 90° |
| 2026-04-29 20:43 | 12.00439 | -61.84950 | 963 ft | 217 kts | 90° |
| 2026-04-29 20:43 | 12.00433 | -61.83474 | 687 ft | 197 kts | 93° |
| 2026-04-29 20:43 | 12.00430 | -61.82174 | 457 ft | 172 kts | 92° |
| 2026-04-29 20:44 | 12.00424 | -61.81054 | 234 ft | 143 kts | 92° |
| 2026-04-29 20:44 | 12.00413 | -61.80198 | 75 ft | 105 kts | 94° |
| 2026-04-29 20:44 | 12.00378 | -61.79551 | 30 ft | 76 kts | 81° |
| 2026-04-29 20:44 | 12.00407 | -61.79111 | 38 ft | 53 kts | 91° |
| 2026-04-29 20:45 | 12.00409 | -61.78763 | 39 ft | 46 kts | 91° |
| 2026-04-29 20:45 | 12.00427 | -61.78612 | 39 ft | 9 kts | 8° |
| 2026-04-29 20:45 | 12.00493 | -61.78612 | 37 ft | 10 kts | 316° |
| 2026-04-29 20:45 | 12.00565 | -61.78623 | 36 ft | 20 kts | 344° |
| 2026-04-29 20:46 | 12.00655 | -61.78649 | 36 ft | 0 kts | 359° |